createdAt,value
2023-06-05T00:00:00.390Z,596.00
2023-06-05T00:00:59.636Z,594.00
2023-06-05T00:01:59.658Z,594.00
2023-06-05T00:02:59.818Z,594.00
2023-06-05T00:03:59.989Z,595.00
2023-06-05T00:04:59.928Z,594.00
2023-06-05T00:05:59.843Z,591.00
2023-06-05T00:06:59.879Z,591.00
2023-06-05T00:07:59.929Z,595.00
2023-06-05T00:08:59.973Z,594.00
2023-06-05T00:10:00.054Z,592.00
2023-06-05T00:11:00.345Z,591.00
2023-06-05T00:12:00.146Z,593.00
2023-06-05T00:13:00.158Z,594.00
2023-06-05T00:14:00.233Z,589.00
2023-06-05T00:15:00.264Z,591.00
2023-06-05T00:16:00.349Z,589.00
2023-06-05T00:17:00.358Z,591.00
2023-06-05T00:18:01.453Z,591.00
2023-06-05T00:19:00.442Z,594.00
2023-06-05T00:20:00.485Z,593.00
2023-06-05T00:21:00.540Z,589.00
2023-06-05T00:22:00.654Z,593.00
2023-06-05T00:23:00.733Z,590.00
2023-06-05T00:24:00.704Z,593.00
2023-06-05T00:25:00.818Z,592.00
2023-06-05T00:26:00.752Z,590.00
2023-06-05T00:27:00.803Z,596.00
2023-06-05T00:28:00.874Z,590.00
2023-06-05T00:29:00.910Z,590.00
2023-06-05T00:30:00.936Z,592.00
2023-06-05T00:31:00.981Z,594.00
2023-06-05T00:32:01.088Z,593.00
2023-06-05T00:33:01.143Z,587.00
2023-06-05T00:34:01.129Z,589.00
2023-06-05T00:35:01.222Z,595.00
2023-06-05T00:36:01.228Z,591.00
2023-06-05T00:37:01.261Z,594.00
2023-06-05T00:38:01.349Z,593.00
2023-06-05T00:39:01.347Z,588.00
2023-06-05T00:40:01.413Z,592.00
2023-06-05T00:41:01.471Z,595.00
2023-06-05T00:42:01.493Z,588.00
2023-06-05T00:43:01.583Z,591.00
2023-06-05T00:44:01.603Z,593.00
2023-06-05T00:45:01.670Z,596.00
2023-06-05T00:46:01.754Z,586.00
2023-06-05T00:47:01.833Z,591.00
2023-06-05T00:48:01.824Z,582.00
2023-06-05T00:49:01.855Z,593.00
2023-06-05T00:50:01.901Z,593.00
2023-06-05T00:51:01.962Z,590.00
2023-06-05T00:52:02.071Z,589.00
2023-06-05T00:53:02.030Z,590.00
2023-06-05T00:54:02.097Z,588.00
2023-06-05T00:55:02.125Z,588.00
2023-06-05T00:56:02.184Z,586.00
2023-06-05T00:57:02.222Z,585.00
2023-06-05T00:58:02.256Z,591.00
2023-06-05T00:59:02.295Z,587.00
2023-06-05T01:00:02.875Z,590.00
2023-06-05T01:01:02.412Z,590.00
2023-06-05T01:02:02.494Z,591.00
2023-06-05T01:03:02.559Z,585.00
2023-06-05T01:04:02.518Z,587.00
2023-06-05T01:05:02.583Z,587.00
2023-06-05T01:06:02.640Z,588.00
2023-06-05T01:07:02.670Z,590.00
2023-06-05T01:08:02.717Z,590.00
2023-06-05T01:09:02.788Z,584.00
2023-06-05T01:10:02.825Z,583.00
2023-06-05T01:11:02.860Z,587.00
2023-06-05T01:12:02.982Z,586.00
2023-06-05T01:13:03.002Z,587.00
2023-06-05T01:14:03.038Z,585.00
2023-06-05T01:15:03.075Z,583.00
2023-06-05T01:16:03.137Z,590.00
2023-06-05T01:17:03.239Z,590.00
2023-06-05T01:18:03.286Z,594.00
2023-06-05T01:19:03.277Z,582.00
2023-06-05T01:20:03.322Z,586.00
2023-06-05T01:21:03.373Z,591.00
2023-06-05T01:22:03.499Z,588.00
2023-06-05T01:23:03.481Z,584.00
2023-06-05T01:24:03.533Z,590.00
2023-06-05T01:25:03.578Z,590.00
2023-06-05T01:26:03.603Z,583.00
2023-06-05T01:27:03.672Z,588.00
2023-06-05T01:28:03.675Z,584.00
2023-06-05T01:29:03.725Z,583.00
2023-06-05T01:30:03.763Z,582.00
2023-06-05T01:31:03.857Z,585.00
2023-06-05T01:32:03.894Z,585.00
2023-06-05T01:33:04.327Z,583.00
2023-06-05T01:34:03.968Z,587.00
2023-06-05T01:35:04.881Z,590.00
2023-06-05T01:36:04.873Z,580.00
2023-06-05T01:37:04.088Z,585.00
2023-06-05T01:38:04.150Z,587.00
2023-06-05T01:39:04.273Z,586.00
2023-06-05T01:40:04.241Z,582.00
2023-06-05T01:41:04.292Z,586.00
2023-06-05T01:42:04.308Z,585.00
2023-06-05T01:43:04.381Z,583.00
2023-06-05T01:44:04.408Z,583.00
2023-06-05T01:45:05.381Z,579.00
2023-06-05T01:46:04.548Z,583.00
2023-06-05T01:47:04.567Z,585.00
2023-06-05T01:48:04.631Z,581.00
2023-06-05T01:49:04.742Z,580.00
2023-06-05T01:50:04.805Z,588.00
2023-06-05T01:51:04.767Z,587.00
2023-06-05T01:52:04.808Z,584.00
2023-06-05T01:53:04.856Z,586.00
2023-06-05T01:54:04.976Z,582.00
2023-06-05T01:55:04.937Z,584.00
2023-06-05T01:56:04.989Z,580.00
2023-06-05T01:57:05.037Z,585.00
2023-06-05T01:58:05.074Z,581.00
2023-06-05T01:59:05.135Z,588.00
2023-06-05T02:00:05.167Z,583.00
2023-06-05T02:01:05.286Z,583.00
2023-06-05T02:02:05.277Z,578.00
2023-06-05T02:03:05.357Z,583.00
2023-06-05T02:04:05.397Z,582.00
2023-06-05T02:05:05.401Z,582.00
2023-06-05T02:06:05.465Z,582.00
2023-06-05T02:07:05.520Z,582.00
2023-06-05T02:08:06.630Z,581.00
2023-06-05T02:09:05.658Z,583.00
2023-06-05T02:10:05.648Z,586.00
2023-06-05T02:11:05.751Z,584.00
2023-06-05T02:12:05.734Z,585.00
2023-06-05T02:13:05.777Z,581.00
2023-06-05T02:14:05.814Z,580.00
2023-06-05T02:15:05.885Z,585.00
2023-06-05T02:16:05.941Z,579.00
2023-06-05T02:17:05.978Z,587.00
2023-06-05T02:18:06.084Z,585.00
2023-06-05T02:19:06.056Z,584.00
2023-06-05T02:20:06.098Z,578.00
2023-06-05T02:21:06.305Z,584.00
2023-06-05T02:22:06.405Z,581.00
2023-06-05T02:23:06.384Z,582.00
2023-06-05T02:24:06.352Z,577.00
2023-06-05T02:25:06.293Z,579.00
2023-06-05T02:26:06.357Z,581.00
2023-06-05T02:27:06.430Z,582.00
2023-06-05T02:28:06.447Z,580.00
2023-06-05T02:29:06.514Z,582.00
2023-06-05T02:30:06.526Z,581.00
2023-06-05T02:31:06.667Z,576.00
2023-06-05T02:32:06.704Z,579.00
2023-06-05T02:33:06.719Z,586.00
2023-06-05T02:34:06.720Z,575.00
2023-06-05T02:35:06.772Z,580.00
2023-06-05T02:36:06.790Z,579.00
2023-06-05T02:37:06.849Z,578.00
2023-06-05T02:38:06.894Z,577.00
2023-06-05T02:39:07.015Z,582.00
2023-06-05T02:40:06.978Z,573.00
2023-06-05T02:41:07.230Z,582.00
2023-06-05T02:42:07.095Z,577.00
2023-06-05T02:43:07.123Z,580.00
2023-06-05T02:44:07.243Z,578.00
2023-06-05T02:45:07.221Z,577.00
2023-06-05T02:46:07.316Z,585.00
2023-06-05T02:47:07.309Z,573.00
2023-06-05T02:48:07.408Z,582.00
2023-06-05T02:49:07.407Z,579.00
2023-06-05T02:50:07.462Z,583.00
2023-06-05T02:51:07.739Z,579.00
2023-06-05T02:52:07.584Z,574.00
2023-06-05T02:53:07.645Z,577.00
2023-06-05T02:54:09.456Z,580.00
2023-06-05T02:55:07.702Z,581.00
2023-06-05T02:56:07.701Z,576.00
2023-06-05T02:57:07.950Z,580.00
2023-06-05T02:58:07.703Z,577.00
2023-06-05T02:59:08.410Z,580.00
2023-06-05T03:00:07.734Z,577.00
2023-06-05T03:01:07.911Z,574.00
2023-06-05T03:02:07.734Z,578.00
2023-06-05T03:03:07.875Z,577.00
2023-06-05T03:04:07.746Z,573.00
2023-06-05T03:05:07.724Z,575.00
2023-06-05T03:06:07.736Z,582.00
2023-06-05T03:07:07.806Z,581.00
2023-06-05T03:08:07.752Z,584.00
2023-06-05T03:09:07.781Z,576.00
2023-06-05T03:10:07.770Z,574.00
2023-06-05T03:11:08.039Z,570.00
2023-06-05T03:12:07.783Z,573.00
2023-06-05T03:13:07.851Z,574.00
2023-06-05T03:14:07.793Z,576.00
2023-06-05T03:15:07.792Z,576.00
2023-06-05T03:16:07.812Z,577.00
2023-06-05T03:17:07.795Z,579.00
2023-06-05T03:18:07.919Z,572.00
2023-06-05T03:19:07.803Z,576.00
2023-06-05T03:20:07.802Z,568.00
2023-06-05T03:21:08.103Z,570.00
2023-06-05T03:22:07.822Z,580.00
2023-06-05T03:23:07.832Z,574.00
2023-06-05T03:24:08.011Z,572.00
2023-06-05T03:25:07.836Z,575.00
2023-06-05T03:26:07.819Z,575.00
2023-06-05T03:27:07.845Z,578.00
2023-06-05T03:28:07.907Z,569.00
2023-06-05T03:29:07.860Z,576.00
2023-06-05T03:30:07.827Z,579.00
2023-06-05T03:31:07.946Z,567.00
2023-06-05T03:32:07.820Z,572.00
2023-06-05T03:33:07.906Z,565.00
2023-06-05T03:34:08.125Z,569.00
2023-06-05T03:35:07.928Z,565.00
2023-06-05T03:36:07.940Z,575.00
2023-06-05T03:37:08.002Z,567.00
2023-06-05T03:38:08.035Z,574.00
2023-06-05T03:39:08.102Z,571.00
2023-06-05T03:40:08.177Z,570.00
2023-06-05T03:41:08.364Z,572.00
2023-06-05T03:42:08.219Z,570.00
2023-06-05T03:43:08.242Z,568.00
2023-06-05T03:44:08.315Z,571.00
2023-06-05T03:45:08.353Z,574.00
2023-06-05T03:46:08.502Z,574.00
2023-06-05T03:47:08.531Z,571.00
2023-06-05T03:48:08.508Z,573.00
2023-06-05T03:49:08.531Z,571.00
2023-06-05T03:50:08.585Z,574.00
2023-06-05T03:51:08.862Z,568.00
2023-06-05T03:52:08.684Z,567.00
2023-06-05T03:53:08.755Z,570.00
2023-06-05T03:54:08.795Z,574.00
2023-06-05T03:55:08.984Z,574.00
2023-06-05T03:56:08.903Z,569.00
2023-06-05T03:57:08.964Z,567.00
2023-06-05T03:58:09.061Z,568.00
2023-06-05T03:59:09.053Z,573.00
2023-06-05T04:00:09.159Z,573.00
2023-06-05T04:01:09.460Z,572.00
2023-06-05T04:02:09.277Z,568.00
2023-06-05T04:03:09.322Z,564.00
2023-06-05T04:04:09.493Z,571.00
2023-06-05T04:05:09.388Z,569.00
2023-06-05T04:06:09.449Z,569.00
2023-06-05T04:07:09.542Z,571.00
2023-06-05T04:08:09.555Z,570.00
2023-06-05T04:09:09.624Z,566.00
2023-06-05T04:10:09.738Z,568.00
2023-06-05T04:11:09.832Z,567.00
2023-06-05T04:12:09.802Z,568.00
2023-06-05T04:13:09.847Z,569.00
2023-06-05T04:14:09.906Z,572.00
2023-06-05T04:15:09.947Z,570.00
2023-06-05T04:16:10.949Z,563.00
2023-06-05T04:17:10.096Z,568.00
2023-06-05T04:18:11.109Z,564.00
2023-06-05T04:19:10.160Z,566.00
2023-06-05T04:20:10.196Z,569.00
2023-06-05T04:21:10.333Z,564.00
2023-06-05T04:22:10.325Z,564.00
2023-06-05T04:23:10.401Z,571.00
2023-06-05T04:24:10.481Z,563.00
2023-06-05T04:25:10.445Z,570.00
2023-06-05T04:26:10.540Z,567.00
2023-06-05T04:27:10.549Z,569.00
2023-06-05T04:28:10.606Z,570.00
2023-06-05T04:29:10.637Z,573.00
2023-06-05T04:30:10.684Z,561.00
2023-06-05T04:31:11.125Z,565.00
2023-06-05T04:32:10.812Z,568.00
2023-06-05T04:33:10.843Z,562.00
2023-06-05T04:34:10.867Z,569.00
2023-06-05T04:35:10.930Z,561.00
2023-06-05T04:36:10.950Z,565.00
2023-06-05T04:37:11.010Z,569.00
2023-06-05T04:38:11.048Z,566.00
2023-06-05T04:39:11.078Z,561.00
2023-06-05T04:40:11.205Z,567.00
2023-06-05T04:41:11.195Z,565.00
2023-06-05T04:42:15.649Z,564.00
2023-06-05T04:43:11.249Z,564.00
2023-06-05T04:44:11.217Z,564.00
2023-06-05T04:45:11.227Z,565.00
2023-06-05T04:46:11.248Z,565.00
2023-06-05T04:47:11.216Z,559.00
2023-06-05T04:48:11.254Z,567.00
2023-06-05T04:49:11.222Z,565.00
2023-06-05T04:50:11.216Z,568.00
2023-06-05T04:51:11.420Z,561.00
2023-06-05T04:52:11.215Z,563.00
2023-06-05T04:53:11.219Z,564.00
2023-06-05T04:54:11.224Z,567.00
2023-06-05T04:55:11.217Z,558.00
2023-06-05T04:56:11.234Z,566.00
2023-06-05T04:57:11.284Z,562.00
2023-06-05T04:58:11.356Z,563.00
2023-06-05T04:59:11.385Z,567.00
2023-06-05T05:00:11.434Z,555.00
2023-06-05T05:01:11.645Z,569.00
2023-06-05T05:02:11.664Z,563.00
2023-06-05T05:03:11.630Z,565.00
2023-06-05T05:04:11.654Z,567.00
2023-06-05T05:05:11.692Z,565.00
2023-06-05T05:06:11.708Z,558.00
2023-06-05T05:07:11.742Z,563.00
2023-06-05T05:08:11.785Z,566.00
2023-06-05T05:09:11.851Z,557.00
2023-06-05T05:10:11.904Z,554.00
2023-06-05T05:11:11.916Z,564.00
2023-06-05T05:12:11.989Z,563.00
2023-06-05T05:13:12.012Z,558.00
2023-06-05T05:14:12.073Z,559.00
2023-06-05T05:15:12.090Z,553.00
2023-06-05T05:16:12.279Z,566.00
2023-06-05T05:17:12.200Z,562.00
2023-06-05T05:18:12.306Z,564.00
2023-06-05T05:19:12.314Z,558.00
2023-06-05T05:20:12.333Z,558.00
2023-06-05T05:21:12.383Z,562.00
2023-06-05T05:22:12.444Z,560.00
2023-06-05T05:23:12.479Z,551.00
2023-06-05T05:24:12.548Z,561.00
2023-06-05T05:25:12.568Z,554.00
2023-06-05T05:26:12.606Z,555.00
2023-06-05T05:27:12.660Z,561.00
2023-06-05T05:28:12.704Z,567.00
2023-06-05T05:29:12.762Z,565.00
2023-06-05T05:30:12.845Z,571.00
2023-06-05T05:31:13.161Z,589.00
2023-06-05T05:32:13.985Z,599.00
2023-06-05T05:33:12.942Z,603.00
2023-06-05T05:34:13.223Z,613.00
2023-06-05T05:35:13.044Z,629.00
2023-06-05T05:36:13.114Z,641.00
2023-06-05T05:37:13.122Z,655.00
2023-06-05T05:38:13.147Z,699.00
2023-06-05T05:39:13.179Z,766.00
2023-06-05T05:40:13.205Z,786.00
2023-06-05T05:41:13.255Z,819.00
2023-06-05T05:42:13.263Z,844.00
2023-06-05T05:43:13.391Z,893.00
2023-06-05T05:44:13.320Z,931.00
2023-06-05T05:45:13.343Z,956.00
2023-06-05T05:46:13.550Z,1018.00
2023-06-05T05:47:13.435Z,1054.00
2023-06-05T05:48:13.467Z,1117.00
2023-06-05T05:49:13.513Z,1161.00
2023-06-05T05:50:13.537Z,1214.00
2023-06-05T05:51:13.520Z,1258.00
2023-06-05T05:52:13.538Z,1300.00
2023-06-05T05:53:13.617Z,1340.00
2023-06-05T05:54:13.593Z,1387.00
2023-06-05T05:55:15.124Z,1390.00
2023-06-05T05:56:13.567Z,1401.00
2023-06-05T05:57:13.577Z,1432.00
2023-06-05T05:58:13.634Z,1488.00
2023-06-05T05:59:15.915Z,1571.00
2023-06-05T06:00:13.694Z,1636.00
2023-06-05T06:01:13.574Z,1669.00
2023-06-05T06:02:13.693Z,1711.00
2023-06-05T06:03:13.709Z,1749.00
2023-06-05T06:04:13.650Z,1789.00
2023-06-05T06:05:13.745Z,1817.00
2023-06-05T06:06:13.626Z,1852.00
2023-06-05T06:07:13.651Z,1900.00
2023-06-05T06:08:13.641Z,1932.00
2023-06-05T06:09:13.680Z,1961.00
2023-06-05T06:10:14.504Z,1993.00
2023-06-05T06:11:13.684Z,2030.00
2023-06-05T06:12:14.007Z,2061.00
2023-06-05T06:13:13.825Z,2117.00
2023-06-05T06:14:13.797Z,2168.00
2023-06-05T06:15:13.936Z,2206.00
2023-06-05T06:16:13.897Z,2246.00
2023-06-05T06:17:13.894Z,2336.00
2023-06-05T06:18:13.989Z,2332.00
2023-06-05T06:19:14.040Z,2335.00
2023-06-05T06:20:14.745Z,2361.00
2023-06-05T06:21:14.008Z,2394.00
2023-06-05T06:22:14.006Z,2394.00
2023-06-05T06:23:14.034Z,2409.00
2023-06-05T06:24:14.087Z,2439.00
2023-06-05T06:25:14.099Z,2456.00
2023-06-05T06:26:14.162Z,2484.00
2023-06-05T06:28:14.166Z,2181.00
2023-06-05T06:29:15.244Z,2008.00
2023-06-05T06:30:14.168Z,1802.00
2023-06-05T06:31:14.194Z,1626.00
2023-06-05T06:32:14.166Z,1467.00
2023-06-05T06:33:14.165Z,1313.00
2023-06-05T06:34:15.113Z,1179.00
2023-06-05T06:35:14.207Z,1074.00
2023-06-05T06:36:14.265Z,1009.00
2023-06-05T06:37:14.199Z,909.00
2023-06-05T06:38:14.210Z,805.00
2023-06-05T06:39:14.215Z,720.00
2023-06-05T06:40:14.226Z,665.00
2023-06-05T06:41:14.258Z,635.00
2023-06-05T06:42:14.333Z,619.00
2023-06-05T06:43:14.381Z,591.00
2023-06-05T06:44:14.480Z,580.00
2023-06-05T06:45:14.552Z,561.00
2023-06-05T06:46:14.602Z,554.00
2023-06-05T06:47:14.648Z,544.00
2023-06-05T06:48:14.748Z,526.00
2023-06-05T06:49:14.776Z,514.00
2023-06-05T06:50:14.829Z,504.00
2023-06-05T06:51:14.872Z,509.00
2023-06-05T06:52:14.925Z,504.00
2023-06-05T06:53:14.989Z,500.00
2023-06-05T06:54:15.020Z,503.00
2023-06-05T06:55:15.081Z,504.00
2023-06-05T06:56:15.094Z,499.00
2023-06-05T06:57:15.142Z,500.00
2023-06-05T06:58:15.165Z,505.00
2023-06-05T06:59:15.198Z,515.00
2023-06-05T07:00:15.246Z,500.00
2023-06-05T07:01:15.321Z,500.00
2023-06-05T07:02:15.399Z,503.00
2023-06-05T07:03:15.383Z,500.00
2023-06-05T07:04:15.402Z,500.00
2023-06-05T07:05:15.419Z,504.00
2023-06-05T07:06:15.464Z,503.00
2023-06-05T07:07:15.494Z,498.00
2023-06-05T07:08:15.521Z,510.00
2023-06-05T07:09:15.527Z,502.00
2023-06-05T07:10:16.527Z,506.00
2023-06-05T07:11:15.610Z,503.00
2023-06-05T07:12:15.651Z,506.00
2023-06-05T07:13:15.665Z,530.00
2023-06-05T07:14:15.724Z,510.00
2023-06-05T07:15:15.766Z,514.00
2023-06-05T07:16:15.767Z,514.00
2023-06-05T07:17:15.825Z,515.00
2023-06-05T07:18:15.825Z,511.00
2023-06-05T07:19:15.864Z,512.00
2023-06-05T07:20:15.940Z,506.00
2023-06-05T07:21:15.936Z,506.00
2023-06-05T07:22:15.969Z,494.00
2023-06-05T07:23:16.004Z,502.00
2023-06-05T07:24:16.126Z,503.00
2023-06-05T07:25:16.091Z,502.00
2023-06-05T07:26:16.149Z,506.00
2023-06-05T07:27:17.178Z,507.00
2023-06-05T07:28:16.174Z,500.00
2023-06-05T07:29:16.195Z,493.00
2023-06-05T07:30:16.212Z,487.00
2023-06-05T07:31:16.277Z,473.00
2023-06-05T07:32:16.263Z,503.00
2023-06-05T07:33:29.090Z,507.00
2023-06-05T07:34:17.299Z,502.00
2023-06-05T07:35:16.307Z,500.00
2023-06-05T07:36:16.338Z,487.00
2023-06-05T07:37:16.342Z,476.00
2023-06-05T07:38:17.042Z,474.00
2023-06-05T07:39:16.388Z,502.00
2023-06-05T07:40:16.374Z,502.00
2023-06-05T07:41:16.419Z,502.00
2023-06-05T07:42:16.747Z,507.00
2023-06-05T07:43:16.496Z,500.00
2023-06-05T07:44:16.447Z,513.00
2023-06-05T07:45:16.578Z,511.00
2023-06-05T07:46:16.548Z,509.00
2023-06-05T07:47:16.592Z,510.00
2023-06-05T07:48:16.674Z,516.00
2023-06-05T07:49:16.679Z,519.00
2023-06-05T07:50:16.754Z,516.00
2023-06-05T07:51:16.789Z,521.00
2023-06-05T07:52:16.865Z,528.00
2023-06-05T07:53:16.929Z,534.00
2023-06-05T07:54:17.046Z,533.00
2023-06-05T07:55:17.076Z,541.00
2023-06-05T07:56:17.153Z,536.00
2023-06-05T07:57:17.329Z,545.00
2023-06-05T07:58:17.321Z,544.00
2023-06-05T07:59:17.391Z,539.00
2023-06-05T08:00:17.509Z,542.00
2023-06-05T08:01:17.538Z,538.00
2023-06-05T08:02:17.670Z,544.00
2023-06-05T08:03:17.790Z,538.00
2023-06-05T08:04:17.881Z,550.00
2023-06-05T08:05:17.821Z,547.00
2023-06-05T08:06:17.898Z,541.00
2023-06-05T08:07:17.979Z,547.00
2023-06-05T08:08:18.072Z,544.00
2023-06-05T08:09:18.101Z,539.00
2023-06-05T08:10:18.571Z,542.00
2023-06-05T08:11:18.270Z,537.00
2023-06-05T08:12:18.392Z,534.00
2023-06-05T08:13:18.380Z,536.00
2023-06-05T08:14:18.469Z,536.00
2023-06-05T08:15:18.544Z,547.00
2023-06-05T08:16:19.604Z,543.00
2023-06-05T08:17:18.805Z,545.00
2023-06-05T08:18:18.753Z,549.00
2023-06-05T08:19:18.852Z,546.00
2023-06-05T08:20:18.900Z,555.00
2023-06-05T08:21:18.998Z,548.00
2023-06-05T08:22:19.007Z,542.00
2023-06-05T08:23:19.161Z,533.00
2023-06-05T08:24:19.168Z,533.00
2023-06-05T08:25:19.217Z,524.00
2023-06-05T08:26:19.275Z,529.00
2023-06-05T08:27:19.555Z,553.00
2023-06-05T08:28:19.355Z,549.00
2023-06-05T08:29:20.053Z,566.00
2023-06-05T08:30:19.525Z,578.00
2023-06-05T08:31:19.641Z,591.00
2023-06-05T08:32:20.227Z,590.00
2023-06-05T08:33:20.526Z,597.00
2023-06-05T08:34:19.802Z,602.00
2023-06-05T08:35:19.890Z,598.00
2023-06-05T08:36:19.889Z,600.00
2023-06-05T08:37:19.929Z,596.00
2023-06-05T08:38:20.011Z,597.00
2023-06-05T08:39:20.032Z,592.00
2023-06-05T08:40:20.106Z,590.00
2023-06-05T08:41:20.136Z,582.00
2023-06-05T08:42:20.161Z,579.00
2023-06-05T08:43:20.201Z,582.00
2023-06-05T08:44:20.247Z,582.00
2023-06-05T08:45:20.310Z,573.00
2023-06-05T08:46:20.382Z,574.00
2023-06-05T08:47:20.463Z,563.00
2023-06-05T08:48:20.474Z,559.00
2023-06-05T08:49:21.072Z,574.00
2023-06-05T08:50:20.595Z,567.00
2023-06-05T08:51:20.574Z,562.00
2023-06-05T08:52:21.619Z,562.00
2023-06-05T08:53:21.970Z,563.00
2023-06-05T08:54:20.673Z,562.00
2023-06-05T08:55:20.712Z,566.00
2023-06-05T08:56:20.721Z,572.00
2023-06-05T08:57:20.797Z,568.00
2023-06-05T08:58:20.755Z,563.00
2023-06-05T08:59:20.793Z,568.00
2023-06-05T09:00:20.818Z,559.00
2023-06-05T09:01:20.891Z,567.00
2023-06-05T09:02:20.871Z,566.00
2023-06-05T09:03:20.923Z,560.00
2023-06-05T09:04:21.916Z,560.00
2023-06-05T09:22:39.172Z,500.00
2023-06-05T09:23:39.191Z,500.00
2023-06-05T09:24:39.195Z,500.00
2023-06-05T09:25:39.094Z,500.00
2023-06-05T09:26:39.176Z,500.00
2023-06-05T09:27:39.091Z,463.00
2023-06-05T09:28:39.084Z,453.00
2023-06-05T09:29:39.104Z,451.00
2023-06-05T09:30:39.073Z,451.00
2023-06-05T09:31:39.126Z,470.00
2023-06-05T09:32:39.139Z,500.00
2023-06-05T09:33:39.057Z,500.00
2023-06-05T09:34:39.074Z,498.00
2023-06-05T09:35:39.056Z,497.00
2023-06-05T09:36:39.050Z,500.00
2023-06-05T09:37:39.069Z,502.00
2023-06-05T09:38:39.044Z,505.00
2023-06-05T09:39:39.057Z,503.00
2023-06-05T09:40:39.111Z,500.00
2023-06-05T09:41:39.160Z,500.00
2023-06-05T09:42:39.219Z,499.00
2023-06-05T09:43:39.309Z,500.00
2023-06-05T09:44:39.322Z,500.00
2023-06-05T09:45:39.350Z,502.00
2023-06-05T09:46:39.434Z,500.00
2023-06-05T09:47:53.335Z,509.00
2023-06-05T09:48:40.455Z,510.00
2023-06-05T09:49:39.525Z,501.00
2023-06-05T09:50:39.505Z,503.00
2023-06-05T09:51:39.498Z,507.00
2023-06-05T09:52:39.412Z,504.00
2023-06-05T09:53:39.409Z,504.00
2023-06-05T09:54:39.406Z,507.00
2023-06-05T09:55:39.397Z,504.00
2023-06-05T09:56:39.399Z,505.00
2023-06-05T09:57:39.402Z,500.00
2023-06-05T09:58:39.388Z,500.00
2023-06-05T09:59:39.380Z,501.00
2023-06-05T10:00:39.416Z,501.00
2023-06-05T10:01:39.381Z,500.00
2023-06-05T10:02:39.422Z,506.00
2023-06-05T10:03:39.378Z,516.00
2023-06-05T10:04:39.545Z,521.00
2023-06-05T10:05:39.389Z,515.00
2023-06-05T10:06:39.409Z,518.00
2023-06-05T10:07:39.439Z,519.00
2023-06-05T10:08:39.454Z,522.00
2023-06-05T10:09:39.470Z,521.00
2023-06-05T10:10:39.497Z,515.00
2023-06-05T10:11:39.506Z,519.00
2023-06-05T10:12:39.545Z,522.00
2023-06-05T10:13:39.563Z,516.00
2023-06-05T10:14:39.595Z,513.00
2023-06-05T10:15:39.592Z,520.00
2023-06-05T10:16:39.626Z,527.00
2023-06-05T10:17:39.751Z,542.00
2023-06-05T10:18:39.658Z,552.00
2023-06-05T10:19:39.679Z,559.00
2023-06-05T10:20:39.685Z,584.00
2023-06-05T10:21:39.749Z,595.00
2023-06-05T10:22:39.706Z,595.00
2023-06-05T10:23:39.731Z,615.00
2023-06-05T10:24:39.706Z,623.00
2023-06-05T10:25:39.696Z,639.00
2023-06-05T10:26:39.702Z,649.00
2023-06-05T10:27:39.716Z,673.00
2023-06-05T10:28:39.823Z,700.00
2023-06-05T10:29:39.783Z,751.00
2023-06-05T10:30:39.880Z,796.00
2023-06-05T10:31:39.923Z,836.00
2023-06-05T10:32:40.011Z,878.00
2023-06-05T10:33:40.037Z,899.00
2023-06-05T10:34:40.095Z,895.00
2023-06-05T10:35:40.164Z,899.00
2023-06-05T10:36:40.331Z,921.00
2023-06-05T10:37:40.300Z,955.00
2023-06-05T10:38:40.348Z,965.00
2023-06-05T10:39:40.407Z,987.00
2023-06-05T10:40:40.462Z,1005.00
2023-06-05T10:41:40.550Z,1063.00
2023-06-05T10:42:40.573Z,1091.00
2023-06-05T10:43:40.642Z,1128.00
2023-06-05T10:44:41.178Z,1148.00
2023-06-05T10:45:40.745Z,1180.00
2023-06-05T10:46:41.323Z,1224.00
2023-06-05T10:47:40.921Z,1246.00
2023-06-05T10:48:40.912Z,1281.00
2023-06-05T10:49:40.947Z,1321.00
2023-06-05T10:50:41.481Z,1352.00
2023-06-05T10:51:41.296Z,1397.00
2023-06-05T10:52:41.094Z,1444.00
2023-06-05T10:53:41.126Z,1493.00
2023-06-05T10:54:41.734Z,1523.00
2023-06-05T10:55:41.215Z,1572.00
2023-06-05T10:56:41.270Z,1577.00
2023-06-05T10:57:41.308Z,1623.00
2023-06-05T10:58:41.378Z,1671.00
2023-06-05T10:59:41.438Z,1698.00
2023-06-05T11:00:41.447Z,1727.00
2023-06-05T11:01:41.557Z,1771.00
2023-06-05T11:02:41.545Z,1779.00
2023-06-05T11:03:41.700Z,1794.00
2023-06-05T11:04:41.601Z,1811.00
2023-06-05T11:05:41.666Z,1810.00
2023-06-05T11:06:41.721Z,1815.00
2023-06-05T11:07:41.767Z,1806.00
2023-06-05T11:08:41.837Z,1777.00
2023-06-05T11:09:41.892Z,1743.00
2023-06-05T11:10:42.408Z,1686.00
2023-06-05T11:11:42.078Z,1637.00
2023-06-05T11:12:42.119Z,1642.00
2023-06-05T11:13:42.091Z,1566.00
2023-06-05T11:14:42.136Z,1585.00
2023-06-05T11:15:42.181Z,1531.00
2023-06-05T11:16:42.280Z,1496.00
2023-06-05T11:17:42.253Z,1469.00
2023-06-05T11:18:42.228Z,1414.00
2023-06-05T11:19:42.236Z,1358.00
2023-06-05T11:20:42.827Z,1338.00
2023-06-05T11:21:42.320Z,1338.00
2023-06-05T11:22:42.286Z,1332.00
2023-06-05T11:23:42.315Z,1306.00
2023-06-05T11:24:42.311Z,1240.00
2023-06-05T11:25:42.313Z,1193.00
2023-06-05T11:26:42.361Z,1172.00
2023-06-05T11:27:42.312Z,1155.00
2023-06-05T11:28:42.308Z,1103.00
2023-06-05T11:29:42.819Z,1027.00
2023-06-05T11:30:47.916Z,981.00
2023-06-05T11:31:43.394Z,981.00
2023-06-05T11:32:42.379Z,955.00
2023-06-05T11:33:42.376Z,960.00
2023-06-05T11:34:42.305Z,919.00
2023-06-05T11:35:42.300Z,901.00
2023-06-05T11:36:42.321Z,890.00
2023-06-05T11:37:54.541Z,815.00
2023-06-05T11:38:43.299Z,816.00
2023-06-05T11:39:42.303Z,808.00
2023-06-05T11:40:42.292Z,759.00
2023-06-05T11:41:42.287Z,709.00
2023-06-05T11:42:43.263Z,680.00
2023-06-05T11:43:42.311Z,655.00
2023-06-05T11:44:42.277Z,640.00
2023-06-05T11:45:44.394Z,632.00
2023-06-05T11:46:42.370Z,638.00
2023-06-05T11:47:42.304Z,618.00
2023-06-05T11:48:42.302Z,649.00
2023-06-05T11:49:42.429Z,673.00
2023-06-05T11:50:42.357Z,708.00
2023-06-05T11:51:42.400Z,725.00
2023-06-05T11:52:42.513Z,684.00
2023-06-05T11:53:42.481Z,655.00
2023-06-05T11:54:42.578Z,632.00
2023-06-05T11:55:42.556Z,653.00
2023-06-05T11:56:42.587Z,679.00
2023-06-05T11:57:51.177Z,696.00
2023-06-05T11:58:43.846Z,698.00
2023-06-05T11:59:42.615Z,703.00
2023-06-05T12:00:42.616Z,731.00
2023-06-05T12:01:42.662Z,795.00
2023-06-05T12:02:42.752Z,953.00
2023-06-05T12:03:42.715Z,990.00
2023-06-05T12:04:42.746Z,1006.00
2023-06-05T12:05:42.651Z,1017.00
2023-06-05T12:06:42.619Z,1043.00
2023-06-05T12:07:42.587Z,1050.00
2023-06-05T12:08:42.588Z,1068.00
2023-06-05T12:09:42.584Z,1055.00
2023-06-05T12:10:42.610Z,1071.00
2023-06-05T12:11:42.574Z,1081.00
2023-06-05T12:12:42.634Z,1082.00
2023-06-05T12:13:42.643Z,1080.00
2023-06-05T12:14:42.573Z,1091.00
2023-06-05T12:15:42.611Z,1093.00
2023-06-05T12:16:42.659Z,1095.00
2023-06-05T12:17:42.874Z,1121.00
2023-06-05T12:18:42.655Z,1121.00
2023-06-05T12:19:42.667Z,1115.00
2023-06-05T12:20:43.600Z,1127.00
2023-06-05T12:21:42.715Z,1141.00
2023-06-05T12:22:42.743Z,1136.00
2023-06-05T12:23:42.794Z,1149.00
2023-06-05T12:24:42.781Z,1153.00
2023-06-05T12:25:42.854Z,1156.00
2023-06-05T12:26:42.827Z,1158.00
2023-06-05T12:27:42.995Z,1155.00
2023-06-05T12:28:42.909Z,1169.00
2023-06-05T12:29:42.911Z,1166.00
2023-06-05T12:30:43.853Z,1170.00
2023-06-05T12:31:43.283Z,1171.00
2023-06-05T12:32:43.021Z,1180.00
2023-06-05T12:33:43.154Z,1179.00
2023-06-05T12:34:58.119Z,1179.00
2023-06-05T12:35:44.364Z,1180.00
2023-06-05T12:36:43.039Z,1182.00
2023-06-05T12:37:43.039Z,1181.00
2023-06-05T12:38:43.039Z,1190.00
2023-06-05T12:39:43.118Z,1193.00
2023-06-05T12:41:43.027Z,1192.00
2023-06-05T12:42:43.022Z,1180.00
2023-06-05T12:43:43.025Z,1172.00